sensor_id;sensor_type;location;lat;lon;timestamp;temperature;humidity
85456;DHT22;75846;43.732;10.404;2024-01-30T00:01:02;3.30;99.90
85456;DHT22;75846;43.732;10.404;2024-01-30T00:03:31;3.30;99.90
85456;DHT22;75846;43.732;10.404;2024-01-30T00:05:58;3.30;99.90
85456;DHT22;75846;43.732;10.404;2024-01-30T00:08:26;3.30;99.90
85456;DHT22;75846;43.732;10.404;2024-01-30T00:10:54;3.20;99.90
85456;DHT22;75846;43.732;10.404;2024-01-30T00:13:21;3.20;99.90
85456;DHT22;75846;43.732;10.404;2024-01-30T00:15:48;3.10;99.90
85456;DHT22;75846;43.732;10.404;2024-01-30T00:18:16;3.10;99.90
85456;DHT22;75846;43.732;10.404;2024-01-30T00:20:45;3.10;99.90
85456;DHT22;75846;43.732;10.404;2024-01-30T00:23:13;3.20;99.90
85456;DHT22;75846;43.732;10.404;2024-01-30T00:25:41;3.30;99.90
85456;DHT22;75846;43.732;10.404;2024-01-30T00:28:08;3.20;99.90
85456;DHT22;75846;43.732;10.404;2024-01-30T00:30:36;3.20;99.90
85456;DHT22;75846;43.732;10.404;2024-01-30T00:33:04;3.10;99.90
85456;DHT22;75846;43.732;10.404;2024-01-30T00:35:31;3.00;99.90
85456;DHT22;75846;43.732;10.404;2024-01-30T00:38:00;3.00;99.90
85456;DHT22;75846;43.732;10.404;2024-01-30T00:40:27;3.00;99.90
85456;DHT22;75846;43.732;10.404;2024-01-30T00:42:55;3.00;99.90
85456;DHT22;75846;43.732;10.404;2024-01-30T00:45:22;3.10;99.90
85456;DHT22;75846;43.732;10.404;2024-01-30T00:47:49;3.10;99.90
85456;DHT22;75846;43.732;10.404;2024-01-30T00:50:17;3.00;99.90
85456;DHT22;75846;43.732;10.404;2024-01-30T00:52:44;2.90;99.90
85456;DHT22;75846;43.732;10.404;2024-01-30T00:55:13;2.90;99.90
85456;DHT22;75846;43.732;10.404;2024-01-30T00:57:40;2.80;99.90
85456;DHT22;75846;43.732;10.404;2024-01-30T01:00:08;2.80;99.90
85456;DHT22;75846;43.732;10.404;2024-01-30T01:02:35;2.70;99.90
85456;DHT22;75846;43.732;10.404;2024-01-30T01:05:03;2.70;99.90
85456;DHT22;75846;43.732;10.404;2024-01-30T01:07:30;2.70;99.90
85456;DHT22;75846;43.732;10.404;2024-01-30T01:09:58;2.70;99.90
85456;DHT22;75846;43.732;10.404;2024-01-30T01:12:27;2.70;99.90
85456;DHT22;75846;43.732;10.404;2024-01-30T01:14:54;2.70;99.90
85456;DHT22;75846;43.732;10.404;2024-01-30T01:17:21;2.60;99.90
85456;DHT22;75846;43.732;10.404;2024-01-30T01:19:49;2.50;99.90
85456;DHT22;75846;43.732;10.404;2024-01-30T01:22:16;2.50;99.90
85456;DHT22;75846;43.732;10.404;2024-01-30T01:24:44;2.60;99.90
85456;DHT22;75846;43.732;10.404;2024-01-30T01:27:11;2.40;99.90
85456;DHT22;75846;43.732;10.404;2024-01-30T01:29:40;2.40;99.90
85456;DHT22;75846;43.732;10.404;2024-01-30T01:32:07;2.40;99.90
85456;DHT22;75846;43.732;10.404;2024-01-30T01:34:34;2.30;99.90
85456;DHT22;75846;43.732;10.404;2024-01-30T01:37:02;2.30;99.90
85456;DHT22;75846;43.732;10.404;2024-01-30T01:39:29;2.20;99.90
85456;DHT22;75846;43.732;10.404;2024-01-30T01:41:56;2.20;99.90
85456;DHT22;75846;43.732;10.404;2024-01-30T01:44:24;2.20;99.90
85456;DHT22;75846;43.732;10.404;2024-01-30T01:46:54;2.20;99.90
85456;DHT22;75846;43.732;10.404;2024-01-30T01:49:24;2.20;99.90
85456;DHT22;75846;43.732;10.404;2024-01-30T01:51:54;2.30;99.90
85456;DHT22;75846;43.732;10.404;2024-01-30T01:54:23;2.30;99.90
85456;DHT22;75846;43.732;10.404;2024-01-30T01:56:51;2.40;99.90
85456;DHT22;75846;43.732;10.404;2024-01-30T01:59:20;2.40;99.90
85456;DHT22;75846;43.732;10.404;2024-01-30T02:01:47;2.40;99.90
85456;DHT22;75846;43.732;10.404;2024-01-30T02:04:17;2.30;99.90
85456;DHT22;75846;43.732;10.404;2024-01-30T02:06:44;2.30;99.90
85456;DHT22;75846;43.732;10.404;2024-01-30T02:09:12;2.20;99.90
85456;DHT22;75846;43.732;10.404;2024-01-30T02:11:39;2.10;99.90
85456;DHT22;75846;43.732;10.404;2024-01-30T02:14:06;2.10;99.90
85456;DHT22;75846;43.732;10.404;2024-01-30T02:16:34;2.20;99.90
85456;DHT22;75846;43.732;10.404;2024-01-30T02:19:02;2.20;99.90
85456;DHT22;75846;43.732;10.404;2024-01-30T02:21:31;2.10;99.90
85456;DHT22;75846;43.732;10.404;2024-01-30T02:23:58;2.10;99.90
85456;DHT22;75846;43.732;10.404;2024-01-30T02:26:26;2.20;99.90
85456;DHT22;75846;43.732;10.404;2024-01-30T02:28:54;2.20;99.90
85456;DHT22;75846;43.732;10.404;2024-01-30T02:31:21;2.30;99.90
85456;DHT22;75846;43.732;10.404;2024-01-30T02:33:48;2.30;99.90
85456;DHT22;75846;43.732;10.404;2024-01-30T02:36:16;2.20;99.90
85456;DHT22;75846;43.732;10.404;2024-01-30T02:38:45;2.20;99.90
85456;DHT22;75846;43.732;10.404;2024-01-30T02:41:12;2.20;99.90
85456;DHT22;75846;43.732;10.404;2024-01-30T02:43:40;2.20;99.90
85456;DHT22;75846;43.732;10.404;2024-01-30T02:46:07;2.20;99.90
85456;DHT22;75846;43.732;10.404;2024-01-30T02:48:34;2.20;99.90
85456;DHT22;75846;43.732;10.404;2024-01-30T02:51:02;2.20;99.90
85456;DHT22;75846;43.732;10.404;2024-01-30T02:53:29;2.20;99.90
85456;DHT22;75846;43.732;10.404;2024-01-30T02:55:58;2.20;99.90
85456;DHT22;75846;43.732;10.404;2024-01-30T02:58:25;2.20;99.90
85456;DHT22;75846;43.732;10.404;2024-01-30T03:00:52;2.10;99.90
85456;DHT22;75846;43.732;10.404;2024-01-30T03:03:20;2.10;99.90
85456;DHT22;75846;43.732;10.404;2024-01-30T03:05:47;2.00;99.90
85456;DHT22;75846;43.732;10.404;2024-01-30T03:08:14;2.00;99.90
85456;DHT22;75846;43.732;10.404;2024-01-30T03:10:41;2.10;99.90
85456;DHT22;75846;43.732;10.404;2024-01-30T03:13:10;2.10;99.90
85456;DHT22;75846;43.732;10.404;2024-01-30T03:15:37;2.10;99.90
85456;DHT22;75846;43.732;10.404;2024-01-30T03:18:05;2.10;99.90
85456;DHT22;75846;43.732;10.404;2024-01-30T03:20:33;2.10;99.90
85456;DHT22;75846;43.732;10.404;2024-01-30T03:23:00;2.10;99.90
85456;DHT22;75846;43.732;10.404;2024-01-30T03:25:28;2.10;99.90
85456;DHT22;75846;43.732;10.404;2024-01-30T03:27:55;2.00;99.90
85456;DHT22;75846;43.732;10.404;2024-01-30T03:30:24;2.00;99.90
85456;DHT22;75846;43.732;10.404;2024-01-30T03:32:52;2.00;99.90
85456;DHT22;75846;43.732;10.404;2024-01-30T03:35:19;2.00;99.90
85456;DHT22;75846;43.732;10.404;2024-01-30T03:37:46;2.00;99.90
85456;DHT22;75846;43.732;10.404;2024-01-30T03:40:14;2.00;99.90
85456;DHT22;75846;43.732;10.404;2024-01-30T03:42:42;2.00;99.90
85456;DHT22;75846;43.732;10.404;2024-01-30T03:45:09;1.90;99.90
85456;DHT22;75846;43.732;10.404;2024-01-30T03:47:38;2.00;99.90
85456;DHT22;75846;43.732;10.404;2024-01-30T03:50:06;2.00;99.90
85456;DHT22;75846;43.732;10.404;2024-01-30T03:52:33;2.00;99.90
85456;DHT22;75846;43.732;10.404;2024-01-30T03:55:00;1.90;99.90
85456;DHT22;75846;43.732;10.404;2024-01-30T03:57:28;1.80;99.90
85456;DHT22;75846;43.732;10.404;2024-01-30T03:59:55;1.80;99.90
85456;DHT22;75846;43.732;10.404;2024-01-30T04:02:22;1.80;99.90
85456;DHT22;75846;43.732;10.404;2024-01-30T04:04:51;1.80;99.90
85456;DHT22;75846;43.732;10.404;2024-01-30T04:07:18;1.80;99.90
85456;DHT22;75846;43.732;10.404;2024-01-30T04:09:46;1.80;99.90
85456;DHT22;75846;43.732;10.404;2024-01-30T04:12:13;1.80;99.90
85456;DHT22;75846;43.732;10.404;2024-01-30T04:14:40;1.80;99.90
85456;DHT22;75846;43.732;10.404;2024-01-30T04:17:08;1.70;99.90
85456;DHT22;75846;43.732;10.404;2024-01-30T04:19:37;1.70;99.90
85456;DHT22;75846;43.732;10.404;2024-01-30T04:22:06;1.70;99.90
85456;DHT22;75846;43.732;10.404;2024-01-30T04:24:34;1.70;99.90
85456;DHT22;75846;43.732;10.404;2024-01-30T04:27:01;1.70;99.90
85456;DHT22;75846;43.732;10.404;2024-01-30T04:29:28;1.70;99.90
85456;DHT22;75846;43.732;10.404;2024-01-30T04:31:55;1.70;99.90
85456;DHT22;75846;43.732;10.404;2024-01-30T04:34:23;1.70;99.90
85456;DHT22;75846;43.732;10.404;2024-01-30T04:36:50;1.70;99.90
85456;DHT22;75846;43.732;10.404;2024-01-30T04:39:19;1.60;99.90
85456;DHT22;75846;43.732;10.404;2024-01-30T04:41:46;1.60;99.90
85456;DHT22;75846;43.732;10.404;2024-01-30T04:44:14;1.60;99.90
85456;DHT22;75846;43.732;10.404;2024-01-30T04:46:41;1.70;99.90
85456;DHT22;75846;43.732;10.404;2024-01-30T04:49:08;1.70;99.90
85456;DHT22;75846;43.732;10.404;2024-01-30T04:51:36;1.70;99.90
85456;DHT22;75846;43.732;10.404;2024-01-30T04:54:03;1.70;99.90
85456;DHT22;75846;43.732;10.404;2024-01-30T04:56:32;1.70;99.90
85456;DHT22;75846;43.732;10.404;2024-01-30T04:59:00;1.70;99.90
85456;DHT22;75846;43.732;10.404;2024-01-30T05:01:27;1.60;99.90
85456;DHT22;75846;43.732;10.404;2024-01-30T05:03:54;1.60;99.90
85456;DHT22;75846;43.732;10.404;2024-01-30T05:06:25;1.60;99.90
85456;DHT22;75846;43.732;10.404;2024-01-30T05:08:52;1.60;99.90
85456;DHT22;75846;43.732;10.404;2024-01-30T05:11:20;1.60;99.90
85456;DHT22;75846;43.732;10.404;2024-01-30T05:13:49;1.60;99.90
85456;DHT22;75846;43.732;10.404;2024-01-30T05:16:16;1.50;99.90
85456;DHT22;75846;43.732;10.404;2024-01-30T05:18:43;1.50;99.90
85456;DHT22;75846;43.732;10.404;2024-01-30T05:21:11;1.50;99.90
85456;DHT22;75846;43.732;10.404;2024-01-30T05:23:38;1.50;99.90
85456;DHT22;75846;43.732;10.404;2024-01-30T05:26:07;1.40;99.90
85456;DHT22;75846;43.732;10.404;2024-01-30T05:28:35;1.40;99.90
85456;DHT22;75846;43.732;10.404;2024-01-30T05:31:04;1.40;99.90
85456;DHT22;75846;43.732;10.404;2024-01-30T05:33:31;1.50;99.90
85456;DHT22;75846;43.732;10.404;2024-01-30T05:35:58;1.50;99.90
85456;DHT22;75846;43.732;10.404;2024-01-30T05:38:25;1.50;99.90
85456;DHT22;75846;43.732;10.404;2024-01-30T05:40:53;1.50;99.90
85456;DHT22;75846;43.732;10.404;2024-01-30T05:43:20;1.50;99.90
85456;DHT22;75846;43.732;10.404;2024-01-30T05:45:47;1.50;99.90
85456;DHT22;75846;43.732;10.404;2024-01-30T05:48:17;1.50;99.90
85456;DHT22;75846;43.732;10.404;2024-01-30T05:50:45;1.50;99.90
85456;DHT22;75846;43.732;10.404;2024-01-30T05:53:13;1.40;99.90
85456;DHT22;75846;43.732;10.404;2024-01-30T05:55:40;1.40;99.90
85456;DHT22;75846;43.732;10.404;2024-01-30T05:58:08;1.40;99.90
85456;DHT22;75846;43.732;10.404;2024-01-30T06:00:35;1.40;99.90
85456;DHT22;75846;43.732;10.404;2024-01-30T06:03:03;1.40;99.90
85456;DHT22;75846;43.732;10.404;2024-01-30T06:05:36;1.40;99.90
85456;DHT22;75846;43.732;10.404;2024-01-30T06:08:04;1.40;99.90
85456;DHT22;75846;43.732;10.404;2024-01-30T06:10:32;1.40;99.90
85456;DHT22;75846;43.732;10.404;2024-01-30T06:12:59;1.30;99.90
85456;DHT22;75846;43.732;10.404;2024-01-30T06:15:27;1.30;99.90
85456;DHT22;75846;43.732;10.404;2024-01-30T06:17:55;1.30;99.90
85456;DHT22;75846;43.732;10.404;2024-01-30T06:20:22;1.20;99.90
85456;DHT22;75846;43.732;10.404;2024-01-30T06:22:51;1.30;99.90
85456;DHT22;75846;43.732;10.404;2024-01-30T06:25:18;1.20;99.90
85456;DHT22;75846;43.732;10.404;2024-01-30T06:27:46;1.30;99.90
85456;DHT22;75846;43.732;10.404;2024-01-30T06:30:14;1.30;99.90
85456;DHT22;75846;43.732;10.404;2024-01-30T06:32:41;1.30;99.90
85456;DHT22;75846;43.732;10.404;2024-01-30T06:35:08;1.30;99.90
85456;DHT22;75846;43.732;10.404;2024-01-30T06:37:36;1.30;99.90
85456;DHT22;75846;43.732;10.404;2024-01-30T06:40:07;1.30;99.90
85456;DHT22;75846;43.732;10.404;2024-01-30T06:42:35;1.30;99.90
85456;DHT22;75846;43.732;10.404;2024-01-30T06:45:03;1.40;99.90
85456;DHT22;75846;43.732;10.404;2024-01-30T06:47:30;1.40;99.90
85456;DHT22;75846;43.732;10.404;2024-01-30T06:49:58;1.40;99.90
85456;DHT22;75846;43.732;10.404;2024-01-30T06:52:25;1.40;99.90
85456;DHT22;75846;43.732;10.404;2024-01-30T06:54:53;1.40;99.90
85456;DHT22;75846;43.732;10.404;2024-01-30T06:57:22;1.40;99.90
85456;DHT22;75846;43.732;10.404;2024-01-30T06:59:49;1.50;99.90
85456;DHT22;75846;43.732;10.404;2024-01-30T07:02:19;1.50;99.90
85456;DHT22;75846;43.732;10.404;2024-01-30T07:04:46;1.60;99.90
85456;DHT22;75846;43.732;10.404;2024-01-30T07:07:15;1.70;99.90
85456;DHT22;75846;43.732;10.404;2024-01-30T07:09:42;1.70;99.90
85456;DHT22;75846;43.732;10.404;2024-01-30T07:12:09;1.80;99.90
85456;DHT22;75846;43.732;10.404;2024-01-30T07:14:38;1.90;99.90
85456;DHT22;75846;43.732;10.404;2024-01-30T07:17:05;2.00;99.90
85456;DHT22;75846;43.732;10.404;2024-01-30T07:19:33;2.00;99.90
85456;DHT22;75846;43.732;10.404;2024-01-30T07:22:00;2.10;99.90
85456;DHT22;75846;43.732;10.404;2024-01-30T07:24:28;2.20;99.90
85456;DHT22;75846;43.732;10.404;2024-01-30T07:26:55;2.30;99.90
85456;DHT22;75846;43.732;10.404;2024-01-30T07:29:22;2.40;99.90
85456;DHT22;75846;43.732;10.404;2024-01-30T07:31:51;2.50;99.90
85456;DHT22;75846;43.732;10.404;2024-01-30T07:34:19;2.60;99.90
85456;DHT22;75846;43.732;10.404;2024-01-30T07:36:47;2.60;99.90
85456;DHT22;75846;43.732;10.404;2024-01-30T07:39:14;2.70;99.90
85456;DHT22;75846;43.732;10.404;2024-01-30T07:41:41;2.80;99.90
85456;DHT22;75846;43.732;10.404;2024-01-30T07:44:08;2.90;99.90
85456;DHT22;75846;43.732;10.404;2024-01-30T07:46:36;3.00;99.90
85456;DHT22;75846;43.732;10.404;2024-01-30T07:49:04;3.10;99.90
85456;DHT22;75846;43.732;10.404;2024-01-30T07:51:32;3.20;99.90
85456;DHT22;75846;43.732;10.404;2024-01-30T07:53:59;3.40;99.90
85456;DHT22;75846;43.732;10.404;2024-01-30T07:56:26;3.60;99.90
85456;DHT22;75846;43.732;10.404;2024-01-30T07:58:54;4.10;99.90
85456;DHT22;75846;43.732;10.404;2024-01-30T08:01:21;4.90;99.90
85456;DHT22;75846;43.732;10.404;2024-01-30T08:03:48;6.50;99.90
85456;DHT22;75846;43.732;10.404;2024-01-30T08:06:17;8.80;99.90
85456;DHT22;75846;43.732;10.404;2024-01-30T08:08:45;10.40;99.90
85456;DHT22;75846;43.732;10.404;2024-01-30T08:11:13;11.90;99.90
85456;DHT22;75846;43.732;10.404;2024-01-30T08:13:40;13.80;99.90
85456;DHT22;75846;43.732;10.404;2024-01-30T08:16:07;14.60;99.90
85456;DHT22;75846;43.732;10.404;2024-01-30T08:18:35;15.10;99.90
85456;DHT22;75846;43.732;10.404;2024-01-30T08:21:02;16.20;99.90
85456;DHT22;75846;43.732;10.404;2024-01-30T08:23:31;17.00;99.90
85456;DHT22;75846;43.732;10.404;2024-01-30T08:25:59;15.70;99.90
85456;DHT22;75846;43.732;10.404;2024-01-30T08:28:26;15.50;99.90
85456;DHT22;75846;43.732;10.404;2024-01-30T08:30:54;14.00;99.90
85456;DHT22;75846;43.732;10.404;2024-01-30T08:33:40;12.40;99.90
85456;DHT22;75846;43.732;10.404;2024-01-30T08:36:07;12.40;99.90
85456;DHT22;75846;43.732;10.404;2024-01-30T08:38:36;12.00;99.90
85456;DHT22;75846;43.732;10.404;2024-01-30T08:41:03;11.40;99.90
85456;DHT22;75846;43.732;10.404;2024-01-30T08:43:31;10.40;99.90
85456;DHT22;75846;43.732;10.404;2024-01-30T08:46:00;9.40;99.90
85456;DHT22;75846;43.732;10.404;2024-01-30T08:48:27;9.40;99.90
85456;DHT22;75846;43.732;10.404;2024-01-30T08:50:54;9.20;99.90
85456;DHT22;75846;43.732;10.404;2024-01-30T08:53:22;8.90;99.90
85456;DHT22;75846;43.732;10.404;2024-01-30T08:55:50;8.90;99.90
85456;DHT22;75846;43.732;10.404;2024-01-30T08:58:18;8.80;99.90
85456;DHT22;75846;43.732;10.404;2024-01-30T09:00:45;8.80;99.90
85456;DHT22;75846;43.732;10.404;2024-01-30T09:03:12;8.50;99.90
85456;DHT22;75846;43.732;10.404;2024-01-30T09:05:40;8.40;99.90
85456;DHT22;75846;43.732;10.404;2024-01-30T09:08:07;8.90;99.90
85456;DHT22;75846;43.732;10.404;2024-01-30T09:10:34;9.30;99.90
85456;DHT22;75846;43.732;10.404;2024-01-30T09:13:03;9.40;99.90
85456;DHT22;75846;43.732;10.404;2024-01-30T09:15:31;9.40;99.90
85456;DHT22;75846;43.732;10.404;2024-01-30T09:17:58;9.30;99.90
85456;DHT22;75846;43.732;10.404;2024-01-30T09:20:25;9.30;99.90
85456;DHT22;75846;43.732;10.404;2024-01-30T09:22:52;9.60;99.90
85456;DHT22;75846;43.732;10.404;2024-01-30T09:25:20;9.60;99.90
85456;DHT22;75846;43.732;10.404;2024-01-30T09:27:47;9.80;99.90
85456;DHT22;75846;43.732;10.404;2024-01-30T09:30:17;10.10;99.90
85456;DHT22;75846;43.732;10.404;2024-01-30T09:32:44;10.20;99.90
85456;DHT22;75846;43.732;10.404;2024-01-30T09:35:11;9.90;99.90
85456;DHT22;75846;43.732;10.404;2024-01-30T09:37:39;9.90;99.90
85456;DHT22;75846;43.732;10.404;2024-01-30T09:40:07;9.90;99.90
85456;DHT22;75846;43.732;10.404;2024-01-30T09:42:35;9.60;99.90
85456;DHT22;75846;43.732;10.404;2024-01-30T09:45:03;9.50;99.90
85456;DHT22;75846;43.732;10.404;2024-01-30T09:47:36;10.10;99.90
85456;DHT22;75846;43.732;10.404;2024-01-30T09:50:07;10.10;99.90
85456;DHT22;75846;43.732;10.404;2024-01-30T09:52:35;10.10;99.90
85456;DHT22;75846;43.732;10.404;2024-01-30T09:55:03;9.60;99.90
85456;DHT22;75846;43.732;10.404;2024-01-30T09:57:30;10.00;99.90
85456;DHT22;75846;43.732;10.404;2024-01-30T09:59:57;10.50;99.90
85456;DHT22;75846;43.732;10.404;2024-01-30T10:02:25;10.20;99.90
85456;DHT22;75846;43.732;10.404;2024-01-30T10:04:53;10.80;99.90
85456;DHT22;75846;43.732;10.404;2024-01-30T10:07:21;11.40;99.90
85456;DHT22;75846;43.732;10.404;2024-01-30T10:09:49;12.00;99.90
85456;DHT22;75846;43.732;10.404;2024-01-30T10:12:16;12.40;99.90
85456;DHT22;75846;43.732;10.404;2024-01-30T10:14:43;12.70;99.90
85456;DHT22;75846;43.732;10.404;2024-01-30T10:17:11;12.90;99.90
85456;DHT22;75846;43.732;10.404;2024-01-30T10:19:40;12.40;99.90
85456;DHT22;75846;43.732;10.404;2024-01-30T10:22:09;12.60;99.90
85456;DHT22;75846;43.732;10.404;2024-01-30T10:24:37;12.50;99.90
85456;DHT22;75846;43.732;10.404;2024-01-30T10:27:06;12.40;99.90
85456;DHT22;75846;43.732;10.404;2024-01-30T10:29:33;13.00;99.90
85456;DHT22;75846;43.732;10.404;2024-01-30T10:32:01;13.70;99.90
85456;DHT22;75846;43.732;10.404;2024-01-30T10:34:29;13.70;99.90
85456;DHT22;75846;43.732;10.404;2024-01-30T10:37:03;13.60;99.90
85456;DHT22;75846;43.732;10.404;2024-01-30T10:39:38;13.50;99.90
85456;DHT22;75846;43.732;10.404;2024-01-30T10:42:07;13.40;99.90
85456;DHT22;75846;43.732;10.404;2024-01-30T10:44:44;13.00;99.90
85456;DHT22;75846;43.732;10.404;2024-01-30T10:47:17;12.60;99.90
85456;DHT22;75846;43.732;10.404;2024-01-30T10:49:45;12.40;99.90
85456;DHT22;75846;43.732;10.404;2024-01-30T10:52:13;12.00;99.90
85456;DHT22;75846;43.732;10.404;2024-01-30T10:54:44;12.10;99.90
85456;DHT22;75846;43.732;10.404;2024-01-30T10:57:12;12.40;99.90
85456;DHT22;75846;43.732;10.404;2024-01-30T10:59:41;12.30;99.90
85456;DHT22;75846;43.732;10.404;2024-01-30T11:02:10;12.30;99.90
85456;DHT22;75846;43.732;10.404;2024-01-30T11:04:37;12.20;99.90
85456;DHT22;75846;43.732;10.404;2024-01-30T11:07:14;12.50;99.90
85456;DHT22;75846;43.732;10.404;2024-01-30T11:09:50;12.70;99.90
85456;DHT22;75846;43.732;10.404;2024-01-30T11:12:22;12.90;99.90
85456;DHT22;75846;43.732;10.404;2024-01-30T11:14:50;13.00;99.90
85456;DHT22;75846;43.732;10.404;2024-01-30T11:17:17;12.90;99.90
85456;DHT22;75846;43.732;10.404;2024-01-30T11:19:46;13.00;99.90
85456;DHT22;75846;43.732;10.404;2024-01-30T11:22:13;12.90;99.90
85456;DHT22;75846;43.732;10.404;2024-01-30T11:24:41;12.90;99.90
85456;DHT22;75846;43.732;10.404;2024-01-30T11:27:10;12.80;99.90
85456;DHT22;75846;43.732;10.404;2024-01-30T11:29:37;12.60;99.90
85456;DHT22;75846;43.732;10.404;2024-01-30T11:32:05;12.70;99.90
85456;DHT22;75846;43.732;10.404;2024-01-30T11:34:33;12.90;99.90
85456;DHT22;75846;43.732;10.404;2024-01-30T11:37:04;13.10;99.90
85456;DHT22;75846;43.732;10.404;2024-01-30T11:39:36;13.20;99.90
85456;DHT22;75846;43.732;10.404;2024-01-30T11:42:06;13.30;99.90
85456;DHT22;75846;43.732;10.404;2024-01-30T11:44:36;13.40;99.90
85456;DHT22;75846;43.732;10.404;2024-01-30T11:47:03;13.40;99.90
85456;DHT22;75846;43.732;10.404;2024-01-30T11:49:31;13.30;99.90
85456;DHT22;75846;43.732;10.404;2024-01-30T11:51:58;13.20;99.90
85456;DHT22;75846;43.732;10.404;2024-01-30T11:54:26;13.20;99.90
85456;DHT22;75846;43.732;10.404;2024-01-30T11:56:53;13.30;99.90
85456;DHT22;75846;43.732;10.404;2024-01-30T11:59:20;13.40;99.90
85456;DHT22;75846;43.732;10.404;2024-01-30T12:01:51;13.40;99.90
85456;DHT22;75846;43.732;10.404;2024-01-30T12:04:18;13.20;99.90
85456;DHT22;75846;43.732;10.404;2024-01-30T12:06:46;13.20;99.90
85456;DHT22;75846;43.732;10.404;2024-01-30T12:09:17;13.00;99.90
85456;DHT22;75846;43.732;10.404;2024-01-30T12:11:45;12.80;99.90
85456;DHT22;75846;43.732;10.404;2024-01-30T12:14:12;12.70;99.90
85456;DHT22;75846;43.732;10.404;2024-01-30T12:16:40;12.80;99.90
85456;DHT22;75846;43.732;10.404;2024-01-30T12:19:09;12.80;99.90
85456;DHT22;75846;43.732;10.404;2024-01-30T12:21:38;12.70;99.90
85456;DHT22;75846;43.732;10.404;2024-01-30T12:24:06;12.60;99.90
85456;DHT22;75846;43.732;10.404;2024-01-30T12:26:34;12.70;99.90
85456;DHT22;75846;43.732;10.404;2024-01-30T12:29:04;12.70;99.90
85456;DHT22;75846;43.732;10.404;2024-01-30T12:31:32;12.70;99.90
85456;DHT22;75846;43.732;10.404;2024-01-30T12:34:00;12.70;99.90
85456;DHT22;75846;43.732;10.404;2024-01-30T12:36:29;12.70;99.90
85456;DHT22;75846;43.732;10.404;2024-01-30T12:38:57;12.50;99.90
85456;DHT22;75846;43.732;10.404;2024-01-30T12:41:25;12.50;99.90
85456;DHT22;75846;43.732;10.404;2024-01-30T12:43:54;12.50;99.90
85456;DHT22;75846;43.732;10.404;2024-01-30T12:46:26;12.60;99.90
85456;DHT22;75846;43.732;10.404;2024-01-30T12:48:54;12.60;99.90
85456;DHT22;75846;43.732;10.404;2024-01-30T12:51:21;12.60;99.90
85456;DHT22;75846;43.732;10.404;2024-01-30T12:53:50;12.50;99.90
85456;DHT22;75846;43.732;10.404;2024-01-30T12:56:17;12.40;99.90
85456;DHT22;75846;43.732;10.404;2024-01-30T12:58:45;12.40;99.90
85456;DHT22;75846;43.732;10.404;2024-01-30T13:01:12;12.30;99.90
85456;DHT22;75846;43.732;10.404;2024-01-30T13:03:39;12.20;99.90
85456;DHT22;75846;43.732;10.404;2024-01-30T13:06:07;12.20;99.90
85456;DHT22;75846;43.732;10.404;2024-01-30T13:08:34;12.30;99.90
85456;DHT22;75846;43.732;10.404;2024-01-30T13:11:03;12.30;99.90
85456;DHT22;75846;43.732;10.404;2024-01-30T13:13:30;12.40;99.90
85456;DHT22;75846;43.732;10.404;2024-01-30T13:15:58;12.30;99.90
85456;DHT22;75846;43.732;10.404;2024-01-30T13:18:26;12.30;99.90
85456;DHT22;75846;43.732;10.404;2024-01-30T13:20:53;12.30;99.90
85456;DHT22;75846;43.732;10.404;2024-01-30T13:23:20;12.40;99.90
85456;DHT22;75846;43.732;10.404;2024-01-30T13:25:48;12.30;99.90
85456;DHT22;75846;43.732;10.404;2024-01-30T13:28:16;12.30;99.90
85456;DHT22;75846;43.732;10.404;2024-01-30T13:30:44;12.40;99.90
85456;DHT22;75846;43.732;10.404;2024-01-30T13:33:11;12.40;99.90
85456;DHT22;75846;43.732;10.404;2024-01-30T13:35:38;12.40;99.90
85456;DHT22;75846;43.732;10.404;2024-01-30T13:38:06;12.40;99.90
85456;DHT22;75846;43.732;10.404;2024-01-30T13:40:33;12.40;99.90
85456;DHT22;75846;43.732;10.404;2024-01-30T13:43:00;12.40;99.90
85456;DHT22;75846;43.732;10.404;2024-01-30T13:45:29;12.40;99.90
85456;DHT22;75846;43.732;10.404;2024-01-30T13:47:56;12.50;99.90
85456;DHT22;75846;43.732;10.404;2024-01-30T13:50:25;12.70;99.90
85456;DHT22;75846;43.732;10.404;2024-01-30T13:52:52;12.80;99.90
85456;DHT22;75846;43.732;10.404;2024-01-30T13:55:19;12.80;99.90
85456;DHT22;75846;43.732;10.404;2024-01-30T13:57:46;12.70;99.90
85456;DHT22;75846;43.732;10.404;2024-01-30T14:00:14;12.70;99.90
85456;DHT22;75846;43.732;10.404;2024-01-30T14:02:43;12.60;99.90
85456;DHT22;75846;43.732;10.404;2024-01-30T14:05:11;12.60;99.90
85456;DHT22;75846;43.732;10.404;2024-01-30T14:07:39;12.70;99.90
85456;DHT22;75846;43.732;10.404;2024-01-30T14:10:09;12.90;99.90
85456;DHT22;75846;43.732;10.404;2024-01-30T14:12:37;12.90;99.90
85456;DHT22;75846;43.732;10.404;2024-01-30T14:15:06;12.80;99.90
85456;DHT22;75846;43.732;10.404;2024-01-30T14:17:35;12.80;99.90
85456;DHT22;75846;43.732;10.404;2024-01-30T14:20:05;12.70;99.90
85456;DHT22;75846;43.732;10.404;2024-01-30T14:22:33;13.00;99.90
85456;DHT22;75846;43.732;10.404;2024-01-30T14:25:01;13.20;99.90
85456;DHT22;75846;43.732;10.404;2024-01-30T14:27:29;13.30;99.80
85456;DHT22;75846;43.732;10.404;2024-01-30T14:29:57;13.30;99.90
85456;DHT22;75846;43.732;10.404;2024-01-30T14:32:25;13.40;99.90
85456;DHT22;75846;43.732;10.404;2024-01-30T14:34:52;13.40;99.90
85456;DHT22;75846;43.732;10.404;2024-01-30T14:37:21;13.40;99.90
85456;DHT22;75846;43.732;10.404;2024-01-30T14:39:49;13.40;99.90
85456;DHT22;75846;43.732;10.404;2024-01-30T14:42:17;13.40;99.90
85456;DHT22;75846;43.732;10.404;2024-01-30T14:44:44;13.30;99.90
85456;DHT22;75846;43.732;10.404;2024-01-30T14:47:11;13.40;99.90
85456;DHT22;75846;43.732;10.404;2024-01-30T14:49:39;13.50;99.90
85456;DHT22;75846;43.732;10.404;2024-01-30T14:52:06;13.40;99.90
85456;DHT22;75846;43.732;10.404;2024-01-30T14:54:38;13.40;99.90
85456;DHT22;75846;43.732;10.404;2024-01-30T14:57:05;13.50;99.90
85456;DHT22;75846;43.732;10.404;2024-01-30T14:59:34;13.80;99.90
85456;DHT22;75846;43.732;10.404;2024-01-30T15:02:02;13.90;99.90
85456;DHT22;75846;43.732;10.404;2024-01-30T15:04:30;14.20;99.90
85456;DHT22;75846;43.732;10.404;2024-01-30T15:06:57;14.50;99.90
85456;DHT22;75846;43.732;10.404;2024-01-30T15:09:25;14.80;99.90
85456;DHT22;75846;43.732;10.404;2024-01-30T15:11:54;14.60;99.90
85456;DHT22;75846;43.732;10.404;2024-01-30T15:14:21;14.20;99.90
85456;DHT22;75846;43.732;10.404;2024-01-30T15:16:49;13.80;99.90
85456;DHT22;75846;43.732;10.404;2024-01-30T15:19:17;13.70;99.90
85456;DHT22;75846;43.732;10.404;2024-01-30T15:21:44;13.50;99.90
85456;DHT22;75846;43.732;10.404;2024-01-30T15:24:11;13.60;99.90
85456;DHT22;75846;43.732;10.404;2024-01-30T15:26:41;13.40;99.90
85456;DHT22;75846;43.732;10.404;2024-01-30T15:29:10;13.10;99.90